Time;durP1;ratioP1;P1;durP2;ratioP2;P2;SDS_P1;SDS_P2;PMS_P1;PMS_P2;Temp;Humidity;BMP_temperature;BMP_pressure;BME280_temperature;BME280_humidity;BME280_pressure;Samples;Min_cycle;Max_cycle;Signal;HPM_P1;HPM_P2
2023/03/12 00:00:18;;;;;;;;;;;;;;;23.02;38.39;94233.44;4976231;28;1617;-72
2023/03/12 00:02:45;;;;;;;;;;;;;;;22.99;38.42;94233.09;5009641;28;1394;-73
2023/03/12 00:05:11;;;;;;;;;;;;;;;22.96;38.87;94249.63;4986107;28;1483;-72
2023/03/12 00:07:38;;;;;;;;;;;;;;;22.91;38.78;94258.34;4987810;28;1417;-72
2023/03/12 00:10:04;;;;;;;;;;;;;;;23.06;38.79;94258.66;4976312;28;1406;-72
2023/03/12 00:12:30;;;;;;;;;;;;;;;22.95;38.90;94264.88;4996171;28;1920;-72
2023/03/12 00:14:56;;;;;;;;;;;;;;;23.04;38.53;94262.63;4986634;28;1427;-72
2023/03/12 00:17:22;;;;;;;;;;;;;;;23.07;38.58;94270.16;5015448;28;1326;-72
2023/03/12 00:19:50;;;;;;;;;;;;;;;23.00;38.85;94267.66;4984681;28;1347;-72
2023/03/12 00:22:17;;;;;;;;;;;;;;;23.11;38.73;94265.97;4995589;28;1365;-73
2023/03/12 00:24:43;;;;;;;;;;;;;;;22.91;39.27;94274.41;5003500;28;1297;-73
2023/03/12 00:27:09;;;;;;;;;;;;;;;22.93;39.10;94274.94;4988208;28;1627;-72
2023/03/12 00:29:35;;;;;;;;;;;;;;;22.99;38.97;94274.03;4999359;28;1422;-72
2023/03/12 00:32:01;;;;;;;;;;;;;;;22.89;39.32;94268.47;4983891;28;1903;-72
2023/03/12 00:34:27;;;;;;;;;;;;;;;22.94;38.97;94271.25;5011347;28;1469;-72
2023/03/12 00:36:53;;;;;;;;;;;;;;;23.02;39.15;94276.22;5000346;28;1493;-72
2023/03/12 00:39:20;;;;;;;;;;;;;;;23.00;38.73;94270.31;5008200;28;1395;-73
2023/03/12 00:41:48;;;;;;;;;;;;;;;23.01;38.61;94271.94;5012111;28;1480;-72
2023/03/12 00:44:14;;;;;;;;;;;;;;;23.11;38.74;94268.66;5004671;28;1335;-72
2023/03/12 00:46:41;;;;;;;;;;;;;;;23.16;38.59;94273.28;5010787;28;1485;-72
2023/03/12 00:49:07;;;;;;;;;;;;;;;22.97;38.83;94260.09;5016740;28;1294;-72
2023/03/12 00:51:33;;;;;;;;;;;;;;;22.95;38.81;94267.53;5005529;28;1957;-73
2023/03/12 00:53:59;;;;;;;;;;;;;;;23.12;38.38;94267.59;4968411;28;1489;-73
2023/03/12 00:56:25;;;;;;;;;;;;;;;23.03;38.83;94269.84;4991014;28;1437;-73
2023/03/12 00:58:52;;;;;;;;;;;;;;;23.01;38.71;94273.81;5012628;28;1473;-72
2023/03/12 01:01:20;;;;;;;;;;;;;;;22.99;38.98;94284.72;4991140;28;1409;-73
2023/03/12 01:03:45;;;;;;;;;;;;;;;23.00;38.81;94274.88;5032194;23;3772;-73
2023/03/12 01:06:13;;;;;;;;;;;;;;;22.95;39.11;94278.25;5043612;28;1331;-74
2023/03/12 01:08:40;;;;;;;;;;;;;;;22.89;39.22;94287.19;5053401;28;1392;-74
2023/03/12 01:11:11;;;;;;;;;;;;;;;22.94;39.06;94271.25;5053664;28;1902;-73
2023/03/12 01:13:37;;;;;;;;;;;;;;;23.00;39.08;94278.34;5081782;28;1194;-74
2023/03/12 01:16:02;;;;;;;;;;;;;;;23.08;38.68;94277.97;5052952;28;1405;-73
2023/03/12 01:18:28;;;;;;;;;;;;;;;23.00;38.91;94278.34;5051916;28;1253;-74
2023/03/12 01:20:53;;;;;;;;;;;;;;;23.04;39.09;94278.69;5058936;28;1411;-73
2023/03/12 01:23:18;;;;;;;;;;;;;;;23.05;38.81;94282.97;5052909;28;1353;-73
2023/03/12 01:25:46;;;;;;;;;;;;;;;23.03;38.68;94293.13;5053303;28;1420;-73
2023/03/12 01:28:11;;;;;;;;;;;;;;;23.02;38.82;94288.78;5042593;28;1372;-73
2023/03/12 01:30:37;;;;;;;;;;;;;;;22.94;39.06;94292.66;5050313;28;1902;-73
2023/03/12 01:33:03;;;;;;;;;;;;;;;23.06;38.63;94287.28;5052325;28;1459;-73
2023/03/12 01:35:30;;;;;;;;;;;;;;;23.02;38.67;94291.47;5068250;28;1174;-73
2023/03/12 01:37:55;;;;;;;;;;;;;;;22.92;39.17;94288.59;5052383;28;1238;-73
2023/03/12 01:40:27;;;;;;;;;;;;;;;22.93;39.22;94282.97;5043754;28;1177;-73
2023/03/12 01:42:55;;;;;;;;;;;;;;;22.89;39.33;94289.88;5052359;28;1461;-71
2023/03/12 01:45:39;;;;;;;;;;;;;;;22.99;38.84;94298.09;5053597;28;1333;-73
2023/03/12 01:48:05;;;;;;;;;;;;;;;22.99;38.89;94295.44;5084130;28;1472;-73
2023/03/12 01:50:30;;;;;;;;;;;;;;;22.98;38.97;94290.34;5054833;28;1902;-73
2023/03/12 01:52:55;;;;;;;;;;;;;;;23.03;38.77;94285.88;5057677;28;1392;-74
2023/03/12 01:55:21;;;;;;;;;;;;;;;23.06;38.96;94300.66;5054917;28;1360;-73
2023/03/12 01:57:54;;;;;;;;;;;;;;;23.02;38.89;94300.28;5052622;28;1344;-73
2023/03/12 02:00:22;;;;;;;;;;;;;;;22.96;38.88;94285.22;5052864;28;1435;-74
2023/03/12 02:02:48;;;;;;;;;;;;;;;23.04;38.63;94292.84;5066938;28;1338;-74
2023/03/12 02:05:16;;;;;;;;;;;;;;;23.06;38.94;94288.09;5034787;28;1325;-74
2023/03/12 02:07:43;;;;;;;;;;;;;;;23.03;38.83;94296.59;5034718;28;1309;-73
2023/03/12 02:10:11;;;;;;;;;;;;;;;22.78;39.71;94309.44;5044277;28;1333;-74
2023/03/12 02:12:37;;;;;;;;;;;;;;;22.80;39.41;94302.78;5038721;28;1910;-71
2023/03/12 02:15:03;;;;;;;;;;;;;;;22.78;39.40;94298.72;5041457;28;1226;-71
2023/03/12 02:17:30;;;;;;;;;;;;;;;23.00;38.88;94297.06;5034370;28;1388;-71
2023/03/12 02:20:12;;;;;;;;;;;;;;;22.98;38.99;94304.50;5061784;28;1134;-71
2023/03/12 02:22:41;;;;;;;;;;;;;;;23.10;38.88;94291.09;5034222;28;1349;-71
2023/03/12 02:25:26;;;;;;;;;;;;;;;23.13;38.59;94283.41;5041361;28;1316;-71
2023/03/12 02:27:51;;;;;;;;;;;;;;;23.07;39.05;94275.53;5036420;28;1363;-70
2023/03/12 02:30:17;;;;;;;;;;;;;;;23.08;38.86;94272.63;5045988;28;1369;-70
2023/03/12 02:32:44;;;;;;;;;;;;;;;23.12;38.75;94268.41;5040877;28;1955;-71
2023/03/12 02:35:13;;;;;;;;;;;;;;;23.03;39.02;94264.50;5052082;28;1408;-70
2023/03/12 02:37:49;;;;;;;;;;;;;;;23.04;39.18;94263.44;5042822;28;1405;-72
2023/03/12 02:40:25;;;;;;;;;;;;;;;23.05;38.88;94267.75;5050553;28;1352;-73
2023/03/12 02:42:51;;;;;;;;;;;;;;;22.95;39.07;94264.88;5052812;28;1184;-72
2023/03/12 02:45:16;;;;;;;;;;;;;;;22.84;39.63;94261.16;5039752;28;1494;-74
2023/03/12 02:47:43;;;;;;;;;;;;;;;22.98;39.25;94272.41;5031888;28;1480;-72
2023/03/12 02:50:09;;;;;;;;;;;;;;;22.89;39.50;94268.47;5033063;28;1411;-70
2023/03/12 02:52:37;;;;;;;;;;;;;;;23.09;39.23;94268.06;5051398;28;1894;-72
2023/03/12 02:55:06;;;;;;;;;;;;;;;23.11;38.77;94265.97;5035210;28;1301;-72
2023/03/12 02:57:36;;;;;;;;;;;;;;;23.10;39.03;94275.84;5034904;28;1412;-71
2023/03/12 03:00:06;;;;;;;;;;;;;;;23.00;39.04;94270.31;5035968;28;1420;-73
2023/03/12 03:02:32;;;;;;;;;;;;;;;22.96;39.33;94269.16;5031967;28;1189;-73
2023/03/12 03:04:58;;;;;;;;;;;;;;;23.08;39.10;94267.28;5035233;28;1369;-73
2023/03/12 03:07:24;;;;;;;;;;;;;;;23.07;39.07;94273.66;5043246;28;1404;-74
2023/03/12 03:09:52;;;;;;;;;;;;;;;22.99;39.16;94276.69;5048727;28;1340;-74
2023/03/12 03:12:17;;;;;;;;;;;;;;;23.06;39.13;94265.88;5020381;28;1979;-71
2023/03/12 03:14:43;;;;;;;;;;;;;;;23.00;39.02;94269.50;5035737;28;1294;-74
2023/03/12 03:17:11;;;;;;;;;;;;;;;23.02;39.20;94281.56;5050352;28;1380;-74
2023/03/12 03:19:36;;;;;;;;;;;;;;;23.09;39.07;94278.78;5044248;28;1277;-71
2023/03/12 03:22:04;;;;;;;;;;;;;;;23.09;39.45;94287.59;5027548;28;1420;-72
2023/03/12 03:24:30;;;;;;;;;;;;;;;23.16;38.96;94298.16;5026796;28;1369;-72
2023/03/12 03:26:55;;;;;;;;;;;;;;;23.12;39.25;94303.19;5044145;28;1483;-72
2023/03/12 03:29:21;;;;;;;;;;;;;;;23.17;39.05;94312.34;5034668;28;1507;-72
2023/03/12 03:31:46;;;;;;;;;;;;;;;23.26;38.73;94324.31;5048922;28;1971;-72
2023/03/12 03:34:14;;;;;;;;;;;;;;;23.01;39.39;94336.13;5040557;28;1341;-72
2023/03/12 03:36:40;;;;;;;;;;;;;;;23.02;39.08;94321.69;5035814;28;1436;-73
2023/03/12 03:39:06;;;;;;;;;;;;;;;23.00;39.21;94323.81;5037125;28;1326;-73
2023/03/12 03:41:33;;;;;;;;;;;;;;;22.98;39.47;94325.09;5045256;28;1297;-74
2023/03/12 03:43:58;;;;;;;;;;;;;;;22.92;39.74;94336.72;5055613;28;1237;-73
2023/03/12 03:46:25;;;;;;;;;;;;;;;22.95;39.62;94336.25;5031064;28;1388;-72
2023/03/12 03:48:54;;;;;;;;;;;;;;;23.04;39.55;94341.00;5041379;28;1277;-73
2023/03/12 03:51:19;;;;;;;;;;;;;;;23.00;39.37;94350.56;5047493;28;1894;-72
2023/03/12 03:53:45;;;;;;;;;;;;;;;23.00;39.66;94355.91;5035688;28;1313;-72
2023/03/12 03:56:13;;;;;;;;;;;;;;;22.98;39.54;94370.56;5032631;28;1424;-73
2023/03/12 03:58:39;;;;;;;;;;;;;;;22.80;39.99;94368.84;5036224;28;1286;-72
2023/03/12 04:01:06;;;;;;;;;;;;;;;22.94;39.84;94378.25;5041264;28;1475;-73
2023/03/12 04:03:32;;;;;;;;;;;;;;;23.03;39.58;94382.19;5051930;28;1567;-73
2023/03/12 04:05:59;;;;;;;;;;;;;;;22.92;39.82;94380.31;5044779;28;1344;-73
2023/03/12 04:08:25;;;;;;;;;;;;;;;23.02;39.73;94385.09;5037486;28;1338;-72
2023/03/12 04:10:52;;;;;;;;;;;;;;;23.04;39.37;94389.16;5048902;28;1910;-78
2023/03/12 04:13:19;;;;;;;;;;;;;;;23.06;39.47;94392.44;5054765;28;1463;-72
2023/03/12 04:15:48;;;;;;;;;;;;;;;22.97;39.83;94401.88;5052895;28;1392;-72
2023/03/12 04:18:15;;;;;;;;;;;;;;;22.97;39.82;94396.50;5042467;28;1340;-72
2023/03/12 04:20:40;;;;;;;;;;;;;;;23.04;39.62;94409.75;5041268;28;1347;-73
2023/03/12 04:23:06;;;;;;;;;;;;;;;22.92;39.36;94392.88;5049957;28;1466;-72
2023/03/12 04:25:32;;;;;;;;;;;;;;;22.95;39.77;94411.97;5038010;28;1467;-72
2023/03/12 04:27:58;;;;;;;;;;;;;;;22.89;39.54;94416.38;5043052;28;1460;-72
2023/03/12 04:30:25;;;;;;;;;;;;;;;22.98;39.71;94416.84;5033358;28;1408;-72
2023/03/12 04:32:50;;;;;;;;;;;;;;;22.92;39.88;94433.81;5030974;28;1902;-72
2023/03/12 04:35:16;;;;;;;;;;;;;;;23.07;39.62;94433.38;5042708;28;1503;-73
2023/03/12 04:37:42;;;;;;;;;;;;;;;22.88;40.04;94433.47;5050523;28;1296;-73
2023/03/12 04:40:09;;;;;;;;;;;;;;;22.89;40.03;94439.63;5038868;28;1352;-74
2023/03/12 04:42:36;;;;;;;;;;;;;;;22.87;40.05;94439.03;5023738;28;1440;-73
2023/03/12 04:45:04;;;;;;;;;;;;;;;23.17;39.21;94436.25;5049151;28;1396;-74
2023/03/12 04:47:30;;;;;;;;;;;;;;;23.08;39.82;94446.53;5051812;28;1202;-74
2023/03/12 04:49:55;;;;;;;;;;;;;;;23.02;39.93;94446.63;5045784;28;1181;-73
2023/03/12 04:52:21;;;;;;;;;;;;;;;22.98;40.07;94448.97;5040091;28;1959;-74
2023/03/12 04:54:49;;;;;;;;;;;;;;;22.84;40.51;94450.22;5027428;28;1277;-74
2023/03/12 04:57:16;;;;;;;;;;;;;;;22.99;40.37;94455.13;5051952;28;1320;-73
2023/03/12 04:59:41;;;;;;;;;;;;;;;22.93;40.30;94456.03;5050372;28;1499;-73
2023/03/12 05:02:07;;;;;;;;;;;;;;;22.97;40.06;94458.03;5046578;28;1381;-73
2023/03/12 05:04:33;;;;;;;;;;;;;;;22.96;40.31;94467.09;5036626;28;1389;-73
2023/03/12 05:06:58;;;;;;;;;;;;;;;23.10;39.74;94470.34;5043978;28;1305;-74
2023/03/12 05:09:25;;;;;;;;;;;;;;;23.12;39.63;94469.06;5051519;28;1364;-73
2023/03/12 05:11:52;;;;;;;;;;;;;;;23.09;39.89;94471.41;5053531;28;1985;-74
2023/03/12 05:14:18;;;;;;;;;;;;;;;22.92;40.56;94481.97;5052509;28;1360;-73
2023/03/12 05:16:45;;;;;;;;;;;;;;;22.97;40.23;94479.44;5028037;28;1482;-74
2023/03/12 05:19:11;;;;;;;;;;;;;;;23.08;39.85;94492.00;5044041;28;1242;-73
2023/03/12 05:21:38;;;;;;;;;;;;;;;23.11;39.90;94488.03;5051138;28;1373;-74
2023/03/12 05:24:04;;;;;;;;;;;;;;;22.97;40.19;94500.84;5047727;28;1400;-73
2023/03/12 05:26:31;;;;;;;;;;;;;;;23.10;40.02;94499.78;5036742;28;1432;-74
2023/03/12 05:28:57;;;;;;;;;;;;;;;23.04;40.20;94498.84;5041117;28;1399;-72
2023/03/12 05:31:23;;;;;;;;;;;;;;;23.02;40.20;94495.59;5044707;28;1894;-72
2023/03/12 05:33:49;;;;;;;;;;;;;;;23.07;40.02;94497.56;5036507;28;1352;-72
2023/03/12 05:36:15;;;;;;;;;;;;;;;23.06;40.43;94504.78;5051091;28;1545;-72
2023/03/12 05:38:41;;;;;;;;;;;;;;;22.98;40.51;94507.81;5037333;28;1381;-73
2023/03/12 05:41:09;;;;;;;;;;;;;;;23.18;40.06;94509.31;5022836;28;1350;-72
2023/03/12 05:43:35;;;;;;;;;;;;;;;22.99;40.57;94514.78;5050555;28;1247;-72
2023/03/12 05:46:02;;;;;;;;;;;;;;;23.04;39.22;94524.78;5069695;28;1527;-72
2023/03/12 05:48:28;;;;;;;;;;;;;;;22.96;39.85;94525.13;5058787;28;1395;-72
2023/03/12 05:50:54;;;;;;;;;;;;;;;22.99;39.74;94527.34;5047916;28;1969;-73
2023/03/12 05:53:20;;;;;;;;;;;;;;;21.82;29.61;94525.13;5037281;28;1230;-76
2023/03/12 05:55:46;;;;;;;;;;;;;;;19.20;28.31;94533.53;5061473;28;1358;-74
2023/03/12 05:58:11;;;;;;;;;;;;;;;17.96;27.82;94525.13;5037275;28;1428;-75
2023/03/12 06:00:37;;;;;;;;;;;;;;;18.46;32.00;94546.03;5043388;28;1474;-75
2023/03/12 06:03:04;;;;;;;;;;;;;;;20.09;31.96;94540.78;5037600;28;1444;-72
2023/03/12 06:05:31;;;;;;;;;;;;;;;21.11;32.12;94541.47;5037456;28;1425;-71
2023/03/12 06:07:57;;;;;;;;;;;;;;;21.75;32.65;94542.03;5034123;28;1424;-74
2023/03/12 06:10:22;;;;;;;;;;;;;;;20.28;24.41;94549.69;5046220;28;1305;-69
2023/03/12 06:12:48;;;;;;;;;;;;;;;19.07;24.44;94564.44;5038932;28;1957;-69
2023/03/12 06:15:14;;;;;;;;;;;;;;;18.37;25.20;94565.84;5038157;28;1416;-69
2023/03/12 06:17:40;;;;;;;;;;;;;;;18.57;24.54;94568.53;5035223;28;1408;-69
2023/03/12 06:20:07;;;;;;;;;;;;;;;18.10;23.92;94570.28;5059457;28;1411;-69
2023/03/12 06:22:34;;;;;;;;;;;;;;;18.05;24.34;94572.72;5045866;28;1459;-69
2023/03/12 06:25:00;;;;;;;;;;;;;;;17.93;24.03;94573.31;5049072;28;1448;-70
2023/03/12 06:27:26;;;;;;;;;;;;;;;18.15;24.89;94576.63;5047331;28;1401;-68
2023/03/12 06:29:52;;;;;;;;;;;;;;;18.33;23.82;94575.25;5045568;28;1418;-70
2023/03/12 06:32:17;;;;;;;;;;;;;;;17.98;23.58;94572.69;5039942;28;1969;-70
2023/03/12 06:34:43;;;;;;;;;;;;;;;17.54;22.80;94584.53;5035607;28;1357;-71
2023/03/12 06:37:09;;;;;;;;;;;;;;;18.05;26.11;94594.78;5031896;28;1473;-72
2023/03/12 06:39:35;;;;;;;;;;;;;;;17.82;22.90;94589.00;5043030;28;1456;-69
2023/03/12 06:42:00;;;;;;;;;;;;;;;17.37;23.18;94601.78;5036308;28;1452;-69
2023/03/12 06:44:26;;;;;;;;;;;;;;;17.53;24.49;94601.44;5036381;28;1397;-68
2023/03/12 06:46:52;;;;;;;;;;;;;;;17.77;23.58;94597.50;5051309;28;1167;-71
2023/03/12 06:49:18;;;;;;;;;;;;;;;17.57;23.20;94607.19;5040331;28;1467;-70
2023/03/12 06:51:45;;;;;;;;;;;;;;;17.04;22.47;94605.03;5063284;28;1961;-70
2023/03/12 06:54:11;;;;;;;;;;;;;;;16.60;23.10;94611.38;5049792;28;1311;-70
2023/03/12 06:56:37;;;;;;;;;;;;;;;17.09;23.07;94618.53;5057437;28;1391;-70
2023/03/12 06:59:04;;;;;;;;;;;;;;;16.78;23.04;94617.06;5049274;28;889;-70
2023/03/12 07:01:29;;;;;;;;;;;;;;;16.86;23.81;94616.09;5039416;28;1337;-71
2023/03/12 07:03:56;;;;;;;;;;;;;;;16.96;23.21;94610.47;5042328;28;1420;-70
2023/03/12 07:06:23;;;;;;;;;;;;;;;16.84;23.64;94613.63;5046686;28;1420;-70
2023/03/12 07:08:49;;;;;;;;;;;;;;;16.99;23.79;94626.81;5036951;28;1393;-70
2023/03/12 07:11:17;;;;;;;;;;;;;;;17.03;23.07;94629.91;5037287;28;1973;-71
2023/03/12 07:13:43;;;;;;;;;;;;;;;17.05;23.39;94641.13;5044780;28;1360;-70
2023/03/12 07:16:10;;;;;;;;;;;;;;;16.82;23.26;94642.19;5056267;28;861;-70
2023/03/12 07:18:36;;;;;;;;;;;;;;;16.85;23.46;94639.13;5055714;28;1406;-70
2023/03/12 07:21:02;;;;;;;;;;;;;;;17.26;22.99;94648.22;5060815;28;1361;-70
2023/03/12 07:23:28;;;;;;;;;;;;;;;17.15;22.34;94654.03;5066007;28;1161;-71
2023/03/12 07:25:53;;;;;;;;;;;;;;;17.05;23.24;94649.09;5071205;28;1217;-71
2023/03/12 07:28:19;;;;;;;;;;;;;;;16.95;23.29;94646.75;5055077;28;1444;-70
2023/03/12 07:30:49;;;;;;;;;;;;;;;17.14;22.89;94666.47;5051272;28;1898;-71
2023/03/12 07:33:16;;;;;;;;;;;;;;;17.12;22.73;94665.03;5064067;28;1168;-70
2023/03/12 07:35:41;;;;;;;;;;;;;;;17.06;23.09;94670.06;5048567;28;1153;-70
2023/03/12 07:38:07;;;;;;;;;;;;;;;17.19;22.45;94679.13;5045679;28;1444;-72
2023/03/12 07:40:33;;;;;;;;;;;;;;;17.35;22.74;94675.38;5054408;28;1356;-69
2023/03/12 07:42:59;;;;;;;;;;;;;;;17.23;22.59;94673.28;5055842;28;936;-69
2023/03/12 07:45:24;;;;;;;;;;;;;;;17.33;22.87;94685.34;5052296;28;1511;-69
2023/03/12 07:47:50;;;;;;;;;;;;;;;17.27;22.33;94681.66;5047216;28;1411;-70
2023/03/12 07:50:16;;;;;;;;;;;;;;;17.22;23.05;94684.91;5053155;28;1413;-70
2023/03/12 07:52:42;;;;;;;;;;;;;;;17.42;22.97;94689.53;5055836;28;1969;-70
2023/03/12 07:55:08;;;;;;;;;;;;;;;17.52;22.78;94695.28;5057562;28;1337;-70
2023/03/12 07:57:34;;;;;;;;;;;;;;;17.06;22.50;94693.94;5047972;28;1391;-70
2023/03/12 07:59:59;;;;;;;;;;;;;;;17.26;22.61;94702.03;5060230;28;1479;-72
2023/03/12 08:02:25;;;;;;;;;;;;;;;17.61;21.84;94701.25;5052109;28;1464;-70
2023/03/12 08:04:50;;;;;;;;;;;;;;;17.48;21.46;94700.16;5068626;28;1371;-71
2023/03/12 08:07:15;;;;;;;;;;;;;;;17.46;21.71;94704.03;5049765;28;1127;-71
2023/03/12 08:09:41;;;;;;;;;;;;;;;17.43;21.85;94699.94;5043357;28;1333;-71
2023/03/12 08:12:06;;;;;;;;;;;;;;;17.68;22.30;94704.78;5047324;28;1914;-71
2023/03/12 08:14:32;;;;;;;;;;;;;;;17.85;22.61;94718.59;5050807;28;1363;-71
2023/03/12 08:16:58;;;;;;;;;;;;;;;18.16;22.24;94718.16;5039776;28;1356;-71
2023/03/12 08:19:25;;;;;;;;;;;;;;;17.91;22.17;94712.50;5062042;28;1455;-70
2023/03/12 08:21:52;;;;;;;;;;;;;;;18.06;22.38;94731.78;5056744;28;1513;-70
2023/03/12 08:24:17;;;;;;;;;;;;;;;17.87;21.22;94724.50;5059178;28;1593;-70
2023/03/12 08:26:43;;;;;;;;;;;;;;;17.70;21.16;94734.56;5043449;28;1397;-70
2023/03/12 08:29:09;;;;;;;;;;;;;;;17.86;21.52;94739.63;5041101;28;1472;-70
2023/03/12 08:31:34;;;;;;;;;;;;;;;17.80;21.33;94745.72;5038586;28;1898;-70
2023/03/12 08:34:02;;;;;;;;;;;;;;;17.79;21.20;94743.25;5045595;28;1396;-70
2023/03/12 08:36:31;;;;;;;;;;;;;;;17.77;20.94;94741.56;5043235;28;1475;-70
2023/03/12 08:38:57;;;;;;;;;;;;;;;18.05;21.62;94747.91;5043767;28;1471;-71
2023/03/12 08:41:23;;;;;;;;;;;;;;;18.26;20.87;94742.50;5045258;28;1329;-70
2023/03/12 08:43:49;;;;;;;;;;;;;;;18.19;21.31;94739.81;5037783;28;1428;-71
2023/03/12 08:46:15;;;;;;;;;;;;;;;18.04;21.44;94736.44;5057009;28;1483;-70
2023/03/12 08:48:41;;;;;;;;;;;;;;;18.12;25.94;94749.56;5058337;28;1284;-70
2023/03/12 08:51:07;;;;;;;;;;;;;;;17.93;26.65;94748.47;5053105;28;2298;-70
2023/03/12 08:53:34;;;;;;;;;;;;;;;17.83;29.07;94760.44;5044289;28;1292;-71
2023/03/12 08:56:00;;;;;;;;;;;;;;;17.97;30.46;94743.56;5046961;28;1268;-72
2023/03/12 08:58:26;;;;;;;;;;;;;;;17.73;29.73;94756.25;5044190;28;1532;-70
2023/03/12 09:00:54;;;;;;;;;;;;;;;17.63;27.56;94760.25;5043198;28;1317;-69
2023/03/12 09:03:20;;;;;;;;;;;;;;;17.82;28.32;94756.16;5051018;28;1365;-69
2023/03/12 09:05:46;;;;;;;;;;;;;;;17.77;27.55;94744.22;5042570;28;1296;-70
2023/03/12 09:08:11;;;;;;;;;;;;;;;17.75;27.18;94748.09;5051959;28;2228;-69
2023/03/12 09:10:37;;;;;;;;;;;;;;;17.87;28.47;94751.03;5053321;28;1285;-70
2023/03/12 09:13:03;;;;;;;;;;;;;;;17.80;27.53;94758.16;5051445;28;1967;-70
2023/03/12 09:15:28;;;;;;;;;;;;;;;18.03;27.00;94749.94;5046514;28;1410;-69
2023/03/12 09:17:54;;;;;;;;;;;;;;;18.25;25.92;94742.69;5043301;28;1241;-69
2023/03/12 09:20:21;;;;;;;;;;;;;;;18.23;26.63;94742.88;5054852;28;1355;-74
2023/03/12 09:22:47;;;;;;;;;;;;;;;18.31;25.89;94748.03;5053883;28;1246;-68
2023/03/12 09:25:14;;;;;;;;;;;;;;;18.07;25.48;94753.81;5043339;28;1446;-69
2023/03/12 09:27:41;;;;;;;;;;;;;;;18.13;27.16;94745.06;5033086;28;1565;-68
2023/03/12 09:30:12;;;;;;;;;;;;;;;17.85;26.39;94750.44;5040850;28;1477;-69
2023/03/12 09:32:37;;;;;;;;;;;;;;;17.63;26.78;94747.81;5045128;28;1952;-69
2023/03/12 09:35:04;;;;;;;;;;;;;;;17.82;26.85;94751.66;5037523;28;1680;-70
2023/03/12 09:37:31;;;;;;;;;;;;;;;17.74;26.01;94749.94;5042247;28;1507;-70
2023/03/12 09:39:57;;;;;;;;;;;;;;;17.99;27.55;94749.50;5042101;28;1317;-69
2023/03/12 09:42:29;;;;;;;;;;;;;;;18.14;26.82;94742.22;5051046;28;1420;-70
2023/03/12 09:44:56;;;;;;;;;;;;;;;18.14;26.37;94747.53;5067917;28;1495;-70
2023/03/12 09:47:25;;;;;;;;;;;;;;;18.07;26.12;94752.00;5052265;28;1182;-70
2023/03/12 09:49:55;;;;;;;;;;;;;;;17.87;25.36;94757.19;5064913;28;1420;-70
2023/03/12 09:52:28;;;;;;;;;;;;;;;18.02;26.70;94738.50;5037556;28;1890;-71
2023/03/12 09:54:58;;;;;;;;;;;;;;;17.91;25.71;94741.69;5042107;28;1473;-69
2023/03/12 09:57:25;;;;;;;;;;;;;;;17.96;25.46;94740.09;5051494;28;1671;-70
2023/03/12 09:59:51;;;;;;;;;;;;;;;18.12;26.26;94738.94;5050835;28;1399;-69
2023/03/12 10:02:23;;;;;;;;;;;;;;;18.08;26.13;94720.97;5041600;28;1374;-69
2023/03/12 10:04:55;;;;;;;;;;;;;;;18.30;26.75;94742.91;5049168;28;1612;-69
2023/03/12 10:07:30;;;;;;;;;;;;;;;18.51;26.38;94736.69;5052320;28;1301;-69
2023/03/12 10:10:14;;;;;;;;;;;;;;;18.51;25.65;94731.38;5052890;28;1300;-69
2023/03/12 10:12:39;;;;;;;;;;;;;;;18.33;25.52;94729.25;5051826;28;1907;-70
2023/03/12 10:15:14;;;;;;;;;;;;;;;18.45;25.24;94719.69;5046307;28;1509;-69
2023/03/12 10:17:41;;;;;;;;;;;;;;;18.58;26.23;94724.22;5036857;28;1582;-69
2023/03/12 10:20:15;;;;;;;;;;;;;;;18.44;25.16;94733.97;5063051;28;1263;-70
2023/03/12 10:22:50;;;;;;;;;;;;;;;18.23;24.94;94726.13;5056026;28;1306;-69
2023/03/12 10:25:26;;;;;;;;;;;;;;;18.15;25.63;94727.94;5032732;28;1585;-70
2023/03/12 10:27:54;;;;;;;;;;;;;;;18.10;24.24;94722.41;5037318;28;1378;-70
2023/03/12 10:30:22;;;;;;;;;;;;;;;18.20;24.56;94725.50;5051608;28;1410;-71
2023/03/12 10:32:55;;;;;;;;;;;;;;;18.33;23.76;94731.91;5047817;28;1914;-71
2023/03/12 10:35:22;;;;;;;;;;;;;;;18.50;24.54;94725.25;5044764;28;1569;-72
2023/03/12 10:37:49;;;;;;;;;;;;;;;18.39;23.98;94726.63;5057056;28;1316;-70
2023/03/12 10:40:16;;;;;;;;;;;;;;;18.27;23.62;94720.25;5058113;28;1642;-70
2023/03/12 10:42:42;;;;;;;;;;;;;;;18.27;24.46;94728.22;5046637;28;1356;-71
2023/03/12 10:45:22;;;;;;;;;;;;;;;18.28;24.21;94737.00;5047209;28;1397;-70
2023/03/12 10:47:56;;;;;;;;;;;;;;;18.41;24.35;94731.72;5048733;28;1647;-71
2023/03/12 10:50:28;;;;;;;;;;;;;;;18.39;23.30;94739.09;5061077;28;1517;-71
2023/03/12 10:53:12;;;;;;;;;;;;;;;18.43;22.92;94735.00;5057761;28;1969;-72
2023/03/12 10:55:37;;;;;;;;;;;;;;;18.13;22.94;94731.78;5055016;28;1486;-70
2023/03/12 10:58:03;;;;;;;;;;;;;;;18.33;23.91;94726.59;5066918;28;1450;-71
2023/03/12 11:00:31;;;;;;;;;;;;;;;18.35;23.33;94721.91;5029553;28;1326;-70
2023/03/12 11:03:04;;;;;;;;;;;;;;;18.45;24.26;94726.84;5050187;28;1652;-71
2023/03/12 11:05:44;;;;;;;;;;;;;;;18.61;23.07;94732.63;5054368;28;1498;-70
2023/03/12 11:08:30;;;;;;;;;;;;;;;18.47;23.41;94730.09;5067721;28;1172;-71
2023/03/12 11:10:58;;;;;;;;;;;;;;;18.24;23.44;94728.59;5028063;28;1961;-71
2023/03/12 11:13:23;;;;;;;;;;;;;;;18.30;23.15;94724.31;5047939;28;1585;-71
2023/03/12 11:15:50;;;;;;;;;;;;;;;18.36;22.84;94721.72;5040764;28;1648;-70
2023/03/12 11:18:20;;;;;;;;;;;;;;;18.50;22.70;94725.25;5048345;28;1673;-71
2023/03/12 11:20:46;;;;;;;;;;;;;;;18.48;22.85;94721.13;5054998;28;1624;-70
2023/03/12 11:23:17;;;;;;;;;;;;;;;18.34;22.58;94717.59;5038808;28;1501;-70
2023/03/12 11:25:42;;;;;;;;;;;;;;;18.51;23.05;94713.59;5042559;28;1593;-71
2023/03/12 11:28:16;;;;;;;;;;;;;;;18.29;21.97;94718.19;5039710;28;1355;-71
2023/03/12 11:30:43;;;;;;;;;;;;;;;18.05;21.92;94714.22;5051426;28;1557;-71
2023/03/12 11:33:10;;;;;;;;;;;;;;;18.11;23.41;94710.78;5033704;28;1907;-71
2023/03/12 11:35:57;;;;;;;;;;;;;;;18.01;22.60;94709.50;5042905;28;1546;-71
2023/03/12 11:38:52;;;;;;;;;;;;;;;18.04;22.39;94720.53;5045365;28;1640;-70
2023/03/12 11:41:19;;;;;;;;;;;;;;;18.02;22.64;94716.44;4985597;28;1607;-70
2023/03/12 11:43:53;;;;;;;;;;;;;;;17.71;22.35;94699.91;5038379;28;1653;-70
2023/03/12 11:46:25;;;;;;;;;;;;;;;17.56;21.43;94698.38;5036458;28;1601;-70
2023/03/12 11:48:54;;;;;;;;;;;;;;;17.52;22.27;94700.59;5046778;28;1544;-71
2023/03/12 11:51:37;;;;;;;;;;;;;;;17.74;22.17;94704.81;5051626;28;1902;-70
2023/03/12 11:54:15;;;;;;;;;;;;;;;17.72;21.87;94708.69;5046094;28;1690;-70
2023/03/12 11:56:46;;;;;;;;;;;;;;;17.39;21.64;94705.78;5043039;28;1502;-69
2023/03/12 11:59:27;;;;;;;;;;;;;;;17.59;21.36;94701.47;5047933;28;1470;-70
2023/03/12 12:01:55;;;;;;;;;;;;;;;17.54;21.49;94695.94;5047297;28;1568;-70
2023/03/12 12:04:34;;;;;;;;;;;;;;;17.35;21.58;94697.41;5051941;28;1612;-71
2023/03/12 12:07:01;;;;;;;;;;;;;;;17.27;21.49;94703.66;5051148;28;1618;-71
2023/03/12 12:09:32;;;;;;;;;;;;;;;17.00;21.28;94707.13;5057767;28;1683;-69
2023/03/12 12:11:57;;;;;;;;;;;;;;;17.03;21.38;94691.66;5057701;28;1922;-70
2023/03/12 12:14:41;;;;;;;;;;;;;;;17.14;21.65;94698.28;5042242;28;1552;-69
2023/03/12 12:17:07;;;;;;;;;;;;;;;17.27;21.04;94689.59;5051955;28;1438;-69
2023/03/12 12:19:51;;;;;;;;;;;;;;;17.11;21.12;94696.00;5042711;28;1389;-70
2023/03/12 12:22:34;;;;;;;;;;;;;;;16.95;21.02;94699.75;5050971;28;1360;-71
2023/03/12 12:25:11;;;;;;;;;;;;;;;17.23;21.27;94701.63;5047392;28;1175;-70
2023/03/12 12:27:43;;;;;;;;;;;;;;;17.27;21.79;94701.03;5058043;28;1387;-71
2023/03/12 12:30:08;;;;;;;;;;;;;;;17.41;21.70;94698.47;5069039;28;1289;-71
2023/03/12 12:32:38;;;;;;;;;;;;;;;17.40;21.82;94691.53;5054137;28;1902;-71
2023/03/12 12:35:04;;;;;;;;;;;;;;;17.23;21.67;94686.53;5053817;28;1258;-71
2023/03/12 12:37:29;;;;;;;;;;;;;;;17.21;22.24;94695.69;5055568;28;1108;-70
2023/03/12 12:39:55;;;;;;;;;;;;;;;17.50;22.24;94698.16;5049724;28;1411;-71
2023/03/12 12:42:23;;;;;;;;;;;;;;;17.71;21.42;94691.13;5046312;28;1325;-71
2023/03/12 12:44:51;;;;;;;;;;;;;;;17.28;21.68;94693.91;5045346;28;1348;-71
2023/03/12 12:47:19;;;;;;;;;;;;;;;17.34;21.65;94698.44;5037001;28;1183;-71
2023/03/12 12:49:49;;;;;;;;;;;;;;;17.47;22.17;94708.31;5051747;28;1185;-71
2023/03/12 12:52:19;;;;;;;;;;;;;;;17.29;22.77;94704.31;5038716;28;1959;-72
2023/03/12 12:54:53;;;;;;;;;;;;;;;17.29;22.34;94695.53;5033292;28;1239;-71
2023/03/12 12:57:37;;;;;;;;;;;;;;;17.26;22.46;94696.75;5053146;28;1146;-72
2023/03/12 13:00:06;;;;;;;;;;;;;;;17.20;22.38;94696.69;5053479;28;1264;-72